Markesan, WI

12:34 PM CST on February 27, 2017 (GMT -0600)
KWIBRAND2 | | Change Station

Elev 999 ft 43.73 °N, 88.78 °W | Updated 2 minutes ago

Partly Cloudy
Partly Cloudy
40.3 °F
Feels Like 37 °F
N
4.2
Wind Variable Wind from SE

Today
High -- | Low -- °F
--% Chance of Precip.
Yesterday
High -- | Low -- °F
Precip. -- in
Pressure 30.12 in
Visibility 10.0 miles
Clouds Mostly Cloudy 4800 ft
Overcast 5500 ft
Windchill 37 °F
Dew Point 27 °F
Humidity 58%
Rainfall 0.02 in
Snow Depth Not available.
6:35 AM 5:42 PM
New Moon, 2% visible
METAR KUNU 271815Z AUTO 17009KT 10SM BKN048 OVC055 04/M02 A3012 RMK AO2 T00401025
Pressure 30.12 in
Visibility 10.0 miles
Clouds Mostly Cloudy 4800 ft
Overcast 5500 ft
Windchill 37 °F
Dew Point 27 °F
Humidity 58%
Rainfall 0.02 in
Snow Depth Not available.
6:35 AM 5:42 PM
New Moon, 2% visible
METAR KUNU 271815Z AUTO 17009KT 10SM BKN048 OVC055 04/M02 A3012 RMK AO2 T00401025

Get Your Daily Forecast Email!

Thanks for signing up!

Be on the lookout for a verification email in your inbox.

You'll start receiving the daily forecast at 8 AM.

×

10-Day Weather Forecast

Almanac

Astronomy

Feb. 27, 2017 Rise Set
Actual Time
Civil Twilight
Nautical Twilight
Astronomical Twilight
Moon
Length of Visible Light
Length of Day
Tomorrow will be .
, % of the Moon is Illuminated

Today's Extremes

State Highs State Lows

Community

WunderPhotos

Upload Photos

1,962,540 photos uploaded!

WunderBlog® & News

Nearby

Air Quality

  Air Quality AQ Index Pollutant
Not available.

Snow Depth

Station Depth Elevation

Earthquake Activity

City Distance Mag. Time & Date
Minimum magnitude displayed is 2.5.

Coastal Water Temperatures

Place Temperature

Stations

Nearby Weather Stations

Station Location Temp. Windchill Dew Point Humidity Wind Precip. Elev Updated Type
                   

Watches & Warnings

There are currently no watches in effect.